createdAt,value
2018-05-31T00:04:03.285Z,20.30
2018-05-31T00:09:06.375Z,20.20
2018-05-31T00:14:10.992Z,20.20
2018-05-31T00:19:14.081Z,20.20
2018-05-31T00:34:26.807Z,19.80
2018-05-31T00:39:30.184Z,19.80
2018-05-31T00:44:34.438Z,19.80
2018-05-31T00:54:42.743Z,19.50
2018-05-31T00:59:46.600Z,19.60
2018-05-31T01:04:50.094Z,19.60
2018-05-31T01:09:54.319Z,19.60
2018-05-31T01:14:58.170Z,19.60
2018-05-31T01:20:02.256Z,19.60
2018-05-31T01:25:07.516Z,19.70
2018-05-31T01:35:15.814Z,19.90
2018-05-31T01:45:24.003Z,20.00
2018-05-31T01:50:27.886Z,20.10
2018-05-31T01:55:30.963Z,20.20
2018-05-31T02:05:39.252Z,20.30
2018-05-31T02:10:42.751Z,20.30
2018-05-31T02:15:46.624Z,20.40
2018-05-31T02:25:54.222Z,20.30
2018-05-31T02:30:57.324Z,20.40
2018-05-31T02:36:01.194Z,20.30
2018-05-31T02:41:04.324Z,20.30
2018-05-31T02:51:12.995Z,20.20
2018-05-31T02:56:16.104Z,20.20
2018-05-31T03:01:20.683Z,20.20
2018-05-31T03:06:24.186Z,20.10
2018-05-31T03:11:28.797Z,20.10
2018-05-31T03:16:31.879Z,20.00
2018-05-31T03:21:35.020Z,20.00
2018-05-31T03:26:38.891Z,19.90
2018-05-31T03:31:42.749Z,19.90
2018-05-31T03:36:46.228Z,19.90
2018-05-31T03:41:50.837Z,19.90
2018-05-31T03:46:53.928Z,19.80
2018-05-31T03:51:57.028Z,19.80
2018-05-31T03:57:00.897Z,19.60
2018-05-31T04:02:04.403Z,19.70
2018-05-31T04:07:07.912Z,19.60
2018-05-31T04:12:11.020Z,19.70
2018-05-31T04:17:14.127Z,19.70
2018-05-31T04:22:17.631Z,19.70
2018-05-31T04:27:21.103Z,19.80
2018-05-31T04:32:24.194Z,20.00
2018-05-31T04:42:34.675Z,20.20
2018-05-31T04:47:38.855Z,20.40
2018-05-31T04:52:42.357Z,20.40
2018-05-31T04:57:45.456Z,20.60
2018-05-31T05:02:50.052Z,20.70
2018-05-31T05:07:53.558Z,20.70
2018-05-31T05:12:57.788Z,20.80
2018-05-31T05:18:00.883Z,20.90
2018-05-31T05:28:09.217Z,21.00
2018-05-31T05:38:17.527Z,21.50
2018-05-31T05:43:21.755Z,21.70
2018-05-31T05:48:24.859Z,21.80
2018-05-31T05:53:27.959Z,21.90
2018-05-31T06:03:37.292Z,21.60
2018-05-31T06:08:41.175Z,21.80
2018-05-31T06:13:45.448Z,21.90
2018-05-31T06:18:48.952Z,22.10
2018-05-31T06:23:52.833Z,22.40
2018-05-31T06:28:56.307Z,22.50
2018-05-31T06:34:00.540Z,22.70
2018-05-31T06:39:03.642Z,22.80
2018-05-31T06:44:06.754Z,23.30
2018-05-31T06:49:10.606Z,23.30
2018-05-31T06:54:14.868Z,23.50
2018-05-31T06:59:17.935Z,23.70
2018-05-31T07:09:25.879Z,23.80
2018-05-31T07:14:30.475Z,23.70
2018-05-31T07:19:33.963Z,23.70
2018-05-31T07:29:43.033Z,23.60
2018-05-31T07:34:46.131Z,23.70
2018-05-31T07:39:49.990Z,23.90
2018-05-31T07:44:53.074Z,24.00
2018-05-31T07:49:56.279Z,24.10
2018-05-31T07:55:00.507Z,24.20
2018-05-31T08:00:04.028Z,24.20
2018-05-31T08:05:07.125Z,24.20
2018-05-31T08:10:10.223Z,24.20
2018-05-31T08:20:18.923Z,24.20
2018-05-31T08:25:23.203Z,24.20
2018-05-31T08:35:31.155Z,24.10
2018-05-31T08:40:34.639Z,24.00
2018-05-31T08:45:37.722Z,23.90
2018-05-31T08:50:41.975Z,23.90
2018-05-31T08:55:46.247Z,23.90
2018-05-31T09:05:54.606Z,24.10
2018-05-31T09:10:58.092Z,25.00
2018-05-31T09:16:02.332Z,26.60
2018-05-31T09:21:05.422Z,28.10
2018-05-31T09:26:08.539Z,28.40
2018-05-31T09:31:12.409Z,28.70
2018-05-31T09:41:21.119Z,29.90
2018-05-31T09:46:24.623Z,30.00
2018-05-31T09:51:28.871Z,30.10
2018-05-31T09:56:33.471Z,29.70
2018-05-31T10:01:37.703Z,29.70
2018-05-31T10:11:46.014Z,29.10
2018-05-31T10:16:49.103Z,28.70
2018-05-31T10:21:52.602Z,28.70
2018-05-31T10:26:56.516Z,28.30
2018-05-31T10:32:00.763Z,28.00
2018-05-31T10:37:04.988Z,27.80
2018-05-31T10:42:09.425Z,27.50
2018-05-31T10:47:13.284Z,27.60
2018-05-31T10:52:16.376Z,27.50
2018-05-31T10:57:20.636Z,27.40
2018-05-31T11:07:29.949Z,27.20
2018-05-31T11:17:39.013Z,26.90
2018-05-31T11:22:43.230Z,26.90
2018-05-31T11:27:46.327Z,27.10
2018-05-31T11:32:49.436Z,27.20
2018-05-31T11:37:54.070Z,27.30
2018-05-31T11:42:58.295Z,27.40
2018-05-31T11:58:10.691Z,27.50
2018-05-31T12:03:14.923Z,27.40
2018-05-31T12:08:19.243Z,27.30
2018-05-31T12:13:23.060Z,27.20
2018-05-31T12:18:26.150Z,27.10
2018-05-31T12:23:29.249Z,27.00
2018-05-31T12:28:32.343Z,27.00
2018-05-31T12:33:36.202Z,27.00
2018-05-31T12:38:39.308Z,27.10
2018-05-31T12:43:43.924Z,27.40
2018-05-31T12:48:48.152Z,27.50
2018-05-31T12:53:52.387Z,27.50
2018-05-31T12:58:56.246Z,27.60
2018-05-31T13:09:03.796Z,27.80
2018-05-31T13:14:06.885Z,28.00
2018-05-31T13:19:10.736Z,27.90
2018-05-31T13:24:14.230Z,27.70
2018-05-31T13:29:17.330Z,27.80
2018-05-31T13:34:20.443Z,27.90
2018-05-31T13:39:23.539Z,28.00
2018-05-31T13:44:26.632Z,28.10
2018-05-31T13:49:30.492Z,28.10
2018-05-31T13:54:34.374Z,28.20
2018-05-31T13:59:37.468Z,28.10
2018-05-31T14:04:41.697Z,28.20
2018-05-31T14:09:45.182Z,28.40
2018-05-31T14:14:48.283Z,28.50
2018-05-31T14:19:52.527Z,28.60
2018-05-31T14:40:23.755Z,28.40
2018-05-31T14:45:27.618Z,28.40
2018-05-31T14:50:33.048Z,28.60
2018-05-31T14:55:36.930Z,28.70
2018-05-31T15:00:40.787Z,28.70
2018-05-31T15:05:43.879Z,28.70
2018-05-31T15:10:47.744Z,28.80
2018-05-31T15:25:59.759Z,28.80
2018-05-31T15:31:04.010Z,28.80
2018-05-31T15:36:07.525Z,28.90
2018-05-31T15:41:10.984Z,28.90
2018-05-31T15:46:14.119Z,28.90
2018-05-31T15:51:17.976Z,28.90
2018-05-31T15:56:21.631Z,28.80
2018-05-31T16:01:25.514Z,28.90
2018-05-31T16:06:28.606Z,28.90
2018-05-31T16:21:40.623Z,28.60
2018-05-31T16:26:43.720Z,28.60
2018-05-31T16:31:46.803Z,28.50
2018-05-31T16:36:51.038Z,28.50
2018-05-31T16:41:54.132Z,28.40
2018-05-31T16:46:58.362Z,28.50
2018-05-31T16:52:01.459Z,28.50
2018-05-31T16:57:05.317Z,28.50
2018-05-31T17:02:08.419Z,28.50
2018-05-31T17:07:11.520Z,28.60
2018-05-31T17:12:14.631Z,28.60
2018-05-31T17:17:18.869Z,28.60
2018-05-31T17:22:21.979Z,28.60
2018-05-31T17:27:25.860Z,28.60
2018-05-31T17:32:29.365Z,28.60
2018-05-31T17:37:33.598Z,28.70
2018-05-31T17:47:41.162Z,28.50
2018-05-31T17:57:48.731Z,28.40
2018-05-31T18:02:52.587Z,28.40
2018-05-31T18:13:00.909Z,28.30
2018-05-31T18:18:04.790Z,28.20
2018-05-31T18:28:12.727Z,28.10
2018-05-31T18:38:20.273Z,28.00
2018-05-31T18:43:24.893Z,28.00
2018-05-31T18:48:29.125Z,27.90
2018-05-31T18:53:33.004Z,27.80
2018-05-31T18:58:36.104Z,27.60
2018-05-31T19:03:39.248Z,27.10
2018-05-31T19:08:43.095Z,26.90
2018-05-31T19:13:51.683Z,26.70
2018-05-31T19:24:12.073Z,26.00
2018-05-31T19:29:16.016Z,25.60
2018-05-31T19:34:19.802Z,25.30
2018-05-31T19:44:34.207Z,24.90
2018-05-31T19:54:43.443Z,24.40
2018-05-31T20:15:05.497Z,23.80
2018-05-31T20:20:08.600Z,23.60
2018-05-31T20:25:11.702Z,23.50
2018-05-31T20:35:19.257Z,23.30
2018-05-31T20:45:28.328Z,23.10
2018-05-31T20:50:31.413Z,23.00
2018-05-31T20:55:35.635Z,22.90
2018-05-31T21:05:44.328Z,22.70
2018-05-31T21:10:47.416Z,22.60
2018-05-31T21:15:51.280Z,22.50
2018-05-31T21:20:55.518Z,22.40
2018-05-31T21:31:04.613Z,22.10
2018-05-31T21:46:17.771Z,22.20
2018-05-31T21:56:26.099Z,22.00
2018-05-31T22:06:34.119Z,21.90
2018-05-31T22:11:37.608Z,21.90
2018-05-31T22:16:41.857Z,21.80
2018-05-31T22:26:49.756Z,21.70
2018-05-31T22:31:52.839Z,21.70
2018-05-31T22:36:55.952Z,21.70
2018-05-31T22:41:59.061Z,21.60
2018-05-31T22:47:03.293Z,21.60
2018-05-31T22:52:07.147Z,21.50
2018-05-31T22:57:10.244Z,21.50
2018-05-31T23:02:13.342Z,21.60
2018-05-31T23:12:20.912Z,21.40
2018-05-31T23:17:24.779Z,21.30
2018-05-31T23:22:28.653Z,21.30
2018-05-31T23:32:36.954Z,21.30
2018-05-31T23:37:40.447Z,21.20
2018-05-31T23:42:45.052Z,21.10
2018-05-31T23:47:48.134Z,21.10
2018-05-31T23:52:51.991Z,21.10
2018-05-31T23:57:55.485Z,21.10
